Thunder radar more information blitzortung!


Radar de pluja more information rain snow radar


Visita la nostra xarxa de llocs de meteo:

Template documentation
and downloads

And another site



No particular awareness of the weather is required.    There are no Weather-warnings

Pagina Historial Weather Underground text

Diari Resum Agost 7, 2017 Unitats:  Imperial    Mètric   Tant
« Previous Dia
SegĂźent Dia »
Diari Setmana Mensual Anual Personalitzada
  Maxima: Minima: Media:
Temperatura: TemperatureC °F 21.8 °F 28.2 °F
Punt de rosada: DewpointC °F 15.2 °F 18.7 °F
Humitat: Humidity % 38 % 57 %
Wind Speed: WindSpeedKMH mph 0.0 mph 3.4 mph
RĂ fegues de vent: WindSpeedGustKMH mph - -
Vent:- - South
Pression baro: PressurehPa in 1007.0 in -
Precipitacions: 0.0 in    
Historical Graphs
 
 
Dades de taula per Agost 7, 2017
Temps Temperatura Punt de rosada Pression baro Vent Wind Speed RĂ fegues de vent Humitat Rainfall Rate (Hourly)
TemperatureC °F DewpointC °F PressurehPa in Calm     Humidity % HourlyPrecipMM in
00:03 23.7 °F 18.6 °F 1015.8 in WSW 3.7 mph 3.7 mph 73 % 0.0 in
00:05 22.2 °F 18.2 °F 1014.8 in SW 1.6 mph 1.6 mph 78 % 0.0 in
00:08 23.7 °F 18.6 °F 1015.8 in SW 3.7 mph 3.7 mph 73 % 0.0 in
00:15 22.1 °F 18.1 °F 1014.8 in SW 1.6 mph 3.2 mph 78 % 0.0 in
00:25 22.1 °F 18.1 °F 1014.8 in SW 3.2 mph 3.2 mph 78 % 0.0 in
00:35 22.0 °F 18.0 °F 1014.8 in SW 1.6 mph 3.2 mph 78 % 0.0 in
00:45 22.0 °F 18.2 °F 1014.8 in SW 1.6 mph 3.2 mph 79 % 0.0 in
00:55 22.0 °F 18.2 °F 1014.8 in Calm     79 % 0.0 in
01:05 21.9 °F 18.1 °F 1014.8 in Calm     79 % 0.0 in
01:15 21.9 °F 18.1 °F 1014.8 in Calm     79 % 0.0 in
01:25 21.9 °F 18.1 °F 1014.8 in Calm     79 % 0.0 in
01:35 21.8 °F 18.0 °F 1014.8 in Calm     79 % 0.0 in
01:45 21.8 °F 18.2 °F 1014.8 in Calm     80 % 0.0 in
01:55 21.8 °F 18.2 °F 1014.8 in Calm   1.6 mph 80 % 0.0 in
02:05 21.8 °F 18.2 °F 1014.8 in Calm   1.6 mph 80 % 0.0 in
02:15 21.9 °F 18.3 °F 1014.8 in Calm   1.6 mph 80 % 0.0 in
02:25 22.0 °F 18.4 °F 1014.8 in Calm     80 % 0.0 in
02:35 22.0 °F 18.4 °F 1013.8 in Calm     80 % 0.0 in
02:45 22.2 °F 18.4 °F 1013.8 in East 1.6 mph 3.2 mph 79 % 0.0 in
02:55 22.4 °F 18.6 °F 1013.8 in Calm   1.6 mph 79 % 0.0 in
03:05 22.6 °F 18.6 °F 1013.8 in SW 3.2 mph 3.2 mph 78 % 0.0 in
03:15 22.6 °F 18.6 °F 1013.8 in SW 3.2 mph 3.2 mph 78 % 0.0 in
03:25 23.0 °F 18.9 °F 1014.8 in Calm   3.2 mph 78 % 0.0 in
03:35 23.8 °F 19.3 °F 1014.8 in SSW 3.2 mph 3.2 mph 76 % 0.0 in
03:45 24.2 °F 19.5 °F 1014.8 in Calm   1.6 mph 75 % 0.0 in
03:55 24.4 °F 19.7 °F 1014.8 in South 1.6 mph 4.8 mph 75 % 0.0 in
04:05 24.8 °F 19.8 °F 1013.8 in South 1.6 mph 4.8 mph 74 % 0.0 in
04:15 25.3 °F 19.9 °F 1013.8 in Calm   3.2 mph 72 % 0.0 in
09:15 30.7 °F 19.1 °F 1012.8 in SSW 16.1 mph 17.7 mph 50 % 0.0 in
09:17 25.7 °F 19.8 °F 1013.8 in SSE 4.2 mph 4.2 mph 70 % 0.0 in
09:18 25.7 °F 19.8 °F 1013.8 in SSE 4.2 mph 4.2 mph 70 % 0.0 in
09:23 25.9 °F 20.0 °F 1013.8 in SE 1.9 mph   70 % 0.0 in
09:25 30.8 °F 19.2 °F 1012.8 in SW 12.9 mph 14.5 mph 50 % 0.0 in
09:28 26.1 °F 19.9 °F 1013.8 in ESE 3.7 mph 3.7 mph 69 % 0.0 in
09:33 26.5 °F 19.9 °F 1013.8 in SSW 1.9 mph   67 % 0.0 in
09:35 31.3 °F 19.3 °F 1011.7 in SW 4.8 mph 9.7 mph 49 % 0.0 in
09:38 26.7 °F 20.1 °F 1013.8 in North 3.7 mph 3.7 mph 67 % 0.0 in
09:43 26.7 °F 20.1 °F 1013.8 in WSW 3.9 mph 3.9 mph 67 % 0.0 in
09:45 31.7 °F 19.7 °F 1011.7 in SW 3.2 mph 8.0 mph 49 % 0.0 in
09:48 27.0 °F 19.8 °F 1013.8 in SSW 3.5 mph   65 % 0.0 in
09:55 31.9 °F 19.5 °F 1011.7 in SW 12.9 mph 12.9 mph 48 % 0.0 in
09:58 27.3 °F 19.9 °F 1013.8 in WSW 6.9 mph 6.9 mph 64 % 0.0 in
10:03 27.0 °F 19.6 °F 1013.8 in SSW 9.3 mph 9.3 mph 64 % 0.0 in
10:05 32.0 °F 19.6 °F 1011.7 in SSW 8.0 mph 17.7 mph 48 % 0.0 in
10:08 27.1 °F 19.4 °F 1013.8 in WSW 7.4 mph 7.4 mph 63 % 0.0 in
10:13 27.4 °F 19.7 °F 1013.8 in SW 7.4 mph 7.4 mph 63 % 0.0 in
10:15 31.7 °F 19.3 °F 1011.7 in SW 3.2 mph 12.9 mph 48 % 0.0 in
10:18 27.8 °F 19.8 °F 1013.8 in ENE 3.7 mph 3.7 mph 62 % 0.0 in
10:23 28.2 °F 19.9 °F 1013.8 in WSW 9.3 mph 9.3 mph 61 % 0.0 in
10:25 32.0 °F 19.6 °F 1011.7 in SW 4.8 mph 12.9 mph 48 % 0.0 in
10:28 28.4 °F 20.2 °F 1013.8 in West 5.6 mph 5.6 mph 61 % 0.0 in
10:33 28.2 °F 19.7 °F 1013.8 in West 7.4 mph 7.4 mph 60 % 0.0 in
10:35 32.1 °F 19.7 °F 1011.7 in SW 4.8 mph 14.5 mph 48 % 0.0 in
10:38 28.5 °F 19.7 °F 1013.8 in SW 7.6 mph 7.6 mph 59 % 0.0 in
10:43 28.5 °F 19.4 °F 1013.8 in WSW 5.6 mph 5.6 mph 58 % 0.0 in
10:45 31.5 °F 19.2 °F 1011.7 in SW 9.7 mph 12.9 mph 48 % 0.0 in
10:48 28.2 °F 19.4 °F 1013.8 in West 9.3 mph 9.3 mph 59 % 0.0 in
10:53 28.0 °F 19.2 °F 1013.8 in West 3.7 mph 3.7 mph 59 % 0.0 in
10:55 31.6 °F 19.3 °F 1011.7 in SW 8.0 mph 8.0 mph 48 % 0.0 in
10:58 28.1 °F 19.1 °F 1013.8 in SW 3.7 mph 3.7 mph 58 % 0.0 in
11:03 28.4 °F 19.3 °F 1013.8 in SW 3.7 mph 3.7 mph 58 % 0.0 in
11:05 31.5 °F 19.5 °F 1011.7 in SW 4.8 mph 12.9 mph 49 % 0.0 in
11:08 29.0 °F 19.3 °F 1013.8 in WSW 5.6 mph 5.6 mph 56 % 0.0 in
11:13 29.4 °F 19.7 °F 1013.8 in West 7.4 mph 7.4 mph 56 % 0.0 in
11:15 31.2 °F 19.2 °F 1011.7 in SW 9.7 mph 12.9 mph 49 % 0.0 in
11:18 29.4 °F 19.1 °F 1013.8 in West 9.3 mph 9.3 mph 54 % 0.0 in
11:23 29.8 °F 19.5 °F 1013.8 in South 7.4 mph 7.4 mph 54 % 0.0 in
11:25 31.1 °F 18.8 °F 1011.7 in SW 11.3 mph 20.9 mph 48 % 0.0 in
11:28 29.4 °F 18.8 °F 1013.8 in SW 7.4 mph 7.4 mph 53 % 0.0 in
11:33 29.5 °F 18.9 °F 1013.8 in South 2.6 mph 3.9 mph 53 % 0.0 in
11:35 31.2 °F 18.9 °F 1010.7 in SW 11.3 mph 14.5 mph 48 % 0.0 in
11:38 29.5 °F 18.9 °F 1013.8 in South 2.6 mph 3.9 mph 53 % 0.0 in
11:43 29.5 °F 18.9 °F 1013.8 in South 2.6 mph 3.9 mph 53 % 0.0 in
11:45 31.4 °F 18.7 °F 1010.7 in SW 12.9 mph 16.1 mph 47 % 0.0 in
11:48 29.5 °F 18.9 °F 1013.8 in South 2.6 mph 3.9 mph 53 % 0.0 in
11:53 29.5 °F 18.9 °F 1013.8 in South 2.6 mph 3.9 mph 53 % 0.0 in
11:55 32.0 °F 18.9 °F 1010.7 in SW 4.8 mph 8.0 mph 46 % 0.0 in
11:58 29.5 °F 18.9 °F 1013.8 in South 2.6 mph 3.9 mph 53 % 0.0 in
12:03 29.5 °F 18.9 °F 1013.8 in South 2.6 mph 3.9 mph 53 % 0.0 in
12:05 31.4 °F 18.4 °F 1010.7 in SW 11.3 mph 17.7 mph 46 % 0.0 in
12:08 29.5 °F 18.9 °F 1013.8 in South 2.6 mph 3.9 mph 53 % 0.0 in
12:13 29.5 °F 18.9 °F 1013.8 in South 2.6 mph 3.9 mph 53 % 0.0 in
12:15 31.9 °F 18.5 °F 1010.7 in SSW 4.8 mph 9.7 mph 45 % 0.0 in
12:18 29.5 °F 18.9 °F 1013.8 in South 2.6 mph 3.9 mph 53 % 0.0 in
12:23 29.5 °F 18.9 °F 1013.8 in South 2.6 mph 3.9 mph 53 % 0.0 in
12:25 31.6 °F 18.2 °F 1010.0 in SSW 4.8 mph 9.7 mph 45 % 0.0 in
12:28 29.5 °F 18.9 °F 1013.8 in South 2.6 mph 3.9 mph 53 % 0.0 in
12:33 29.5 °F 18.9 °F 1013.8 in South 2.6 mph 3.9 mph 53 % 0.0 in
12:35 31.6 °F 17.8 °F 1010.0 in SW 4.8 mph 16.1 mph 44 % 0.0 in
12:38 29.5 °F 18.9 °F 1013.8 in South 2.6 mph 3.9 mph 53 % 0.0 in
12:43 29.5 °F 18.9 °F 1013.8 in South 2.6 mph 3.9 mph 53 % 0.0 in
12:45 32.2 °F 18.1 °F 1010.0 in SW 4.8 mph 12.9 mph 43 % 0.0 in
12:48 29.5 °F 18.9 °F 1013.8 in South 2.6 mph 3.9 mph 53 % 0.0 in
12:53 29.5 °F 18.9 °F 1013.8 in South 2.6 mph 3.9 mph 53 % 0.0 in
12:55 31.4 °F 16.9 °F 1010.0 in SW 9.7 mph 14.5 mph 42 % 0.0 in
12:58 29.5 °F 18.9 °F 1013.8 in South 2.6 mph 3.9 mph 53 % 0.0 in
13:03 29.5 °F 18.9 °F 1013.8 in South 2.6 mph 3.9 mph 53 % 0.0 in
13:05 31.4 °F 16.2 °F 1010.0 in SSW 4.8 mph 11.3 mph 40 % 0.0 in
13:08 29.5 °F 18.9 °F 1013.8 in South 2.6 mph 3.9 mph 53 % 0.0 in
13:13 29.5 °F 18.9 °F 1013.8 in South 2.6 mph 3.9 mph 53 % 0.0 in
13:15 31.2 °F 15.6 °F 1010.0 in SW 8.0 mph 12.9 mph 39 % 0.0 in
13:18 29.5 °F 18.9 °F 1013.8 in South 2.6 mph 3.9 mph 53 % 0.0 in
13:23 29.5 °F 18.9 °F 1013.8 in South 2.6 mph 3.9 mph 53 % 0.0 in
13:25 31.3 °F 15.7 °F 1010.0 in SW 4.8 mph 17.7 mph 39 % 0.0 in
13:28 29.5 °F 18.9 °F 1013.8 in South 2.6 mph 3.9 mph 53 % 0.0 in
13:33 29.5 °F 18.9 °F 1013.8 in South 2.6 mph 3.9 mph 53 % 0.0 in
13:35 31.2 °F 15.2 °F 1010.0 in SSW 9.7 mph 12.9 mph 38 % 0.0 in
13:38 29.5 °F 18.9 °F 1013.8 in South 2.6 mph 3.9 mph 53 % 0.0 in
13:43 29.5 °F 18.9 °F 1013.8 in South 2.6 mph 3.9 mph 53 % 0.0 in
13:45 31.0 °F 15.4 °F 1010.0 in SW 3.2 mph 12.9 mph 39 % 0.0 in
13:48 29.5 °F 18.9 °F 1013.8 in South 2.6 mph 3.9 mph 53 % 0.0 in
13:53 29.5 °F 18.9 °F 1013.8 in South 2.6 mph 3.9 mph 53 % 0.0 in
13:55 30.4 °F 15.3 °F 1010.0 in SW 8.0 mph 8.0 mph 40 % 0.0 in
13:58 29.5 °F 18.9 °F 1013.8 in South 2.6 mph 3.9 mph 53 % 0.0 in
14:03 29.5 °F 18.9 °F 1013.8 in South 2.6 mph 3.9 mph 53 % 0.0 in
14:05 30.5 °F 15.4 °F 1010.0 in SW 4.8 mph 12.9 mph 40 % 0.0 in
14:08 29.5 °F 18.9 °F 1013.8 in South 2.6 mph 3.9 mph 53 % 0.0 in
14:13 29.5 °F 18.9 °F 1013.8 in South 2.6 mph 3.9 mph 53 % 0.0 in
14:15 29.8 °F 15.5 °F 1010.0 in SW 4.8 mph 11.3 mph 42 % 0.0 in
14:18 29.5 °F 18.9 °F 1013.8 in South 2.6 mph 3.9 mph 53 % 0.0 in
14:23 29.5 °F 18.9 °F 1013.8 in South 2.6 mph 3.9 mph 53 % 0.0 in
14:25 29.5 °F 15.2 °F 1010.0 in SW 4.8 mph 11.3 mph 42 % 0.0 in
14:28 29.5 °F 18.9 °F 1013.8 in South 2.6 mph 3.9 mph 53 % 0.0 in
14:33 29.5 °F 18.9 °F 1013.8 in South 2.6 mph 3.9 mph 53 % 0.0 in
14:35 28.9 °F 15.4 °F 1010.0 in SW 8.0 mph 8.0 mph 44 % 0.0 in
14:38 29.5 °F 18.9 °F 1013.8 in South 2.6 mph 3.9 mph 53 % 0.0 in
14:43 29.5 °F 18.9 °F 1013.8 in South 2.6 mph 3.9 mph 53 % 0.0 in
14:45 28.5 °F 15.8 °F 1010.0 in SSW 4.8 mph 4.8 mph 46 % 0.0 in
14:48 29.5 °F 18.9 °F 1013.8 in South 2.6 mph 3.9 mph 53 % 0.0 in
14:53 29.5 °F 18.9 °F 1013.8 in South 2.6 mph 3.9 mph 53 % 0.0 in
14:55 28.5 °F 16.1 °F 1009.0 in SSW 3.2 mph 4.8 mph 47 % 0.0 in
14:58 29.5 °F 18.9 °F 1013.8 in South 2.6 mph 3.9 mph 53 % 0.0 in
15:03 29.5 °F 18.9 °F 1013.8 in South 2.6 mph 3.9 mph 53 % 0.0 in
15:05 28.1 °F 16.1 °F 1010.0 in SSW 4.8 mph 9.7 mph 48 % 0.0 in
15:08 29.5 °F 18.9 °F 1013.8 in South 2.6 mph 3.9 mph 53 % 0.0 in
15:13 29.5 °F 18.9 °F 1013.8 in South 2.6 mph 3.9 mph 53 % 0.0 in
15:15 27.8 °F 16.4 °F 1010.0 in SSW 3.2 mph 8.0 mph 50 % 0.0 in
15:18 29.5 °F 18.9 °F 1013.8 in South 2.6 mph 3.9 mph 53 % 0.0 in
15:23 29.5 °F 18.9 °F 1013.8 in South 2.6 mph 3.9 mph 53 % 0.0 in
15:25 27.7 °F 16.7 °F 1010.0 in SSW 1.6 mph 9.7 mph 51 % 0.0 in
15:28 29.5 °F 18.9 °F 1013.8 in South 2.6 mph 3.9 mph 53 % 0.0 in
15:34 29.5 °F 18.9 °F 1013.8 in South 2.6 mph 3.9 mph 53 % 0.0 in
15:35 27.2 °F 16.5 °F 1010.0 in SSW 3.2 mph 3.2 mph 52 % 0.0 in
15:38 29.5 °F 18.9 °F 1013.8 in South 2.6 mph 3.9 mph 53 % 0.0 in
15:44 29.5 °F 18.9 °F 1013.8 in South 2.6 mph 3.9 mph 53 % 0.0 in
15:45 27.0 °F 16.6 °F 1010.0 in SW 4.8 mph 6.4 mph 53 % 0.0 in
15:49 29.5 °F 18.9 °F 1013.8 in South 2.6 mph 3.9 mph 53 % 0.0 in
15:54 29.5 °F 18.9 °F 1013.8 in South 2.6 mph 3.9 mph 53 % 0.0 in
15:55 26.8 °F 17.0 °F 1009.0 in SW 1.6 mph 6.4 mph 55 % 0.0 in
15:59 29.5 °F 18.9 °F 1013.8 in South 2.6 mph 3.9 mph 53 % 0.0 in
16:04 29.5 °F 18.9 °F 1013.8 in South 2.6 mph 3.9 mph 53 % 0.0 in
16:05 26.6 °F 17.4 °F 1010.0 in SW 4.8 mph 4.8 mph 57 % 0.0 in
16:09 29.5 °F 18.9 °F 1013.8 in South 2.6 mph 3.9 mph 53 % 0.0 in
16:14 29.5 °F 18.9 °F 1013.8 in South 2.6 mph 3.9 mph 53 % 0.0 in
16:15 26.4 °F 17.7 °F 1010.0 in SW 1.6 mph 4.8 mph 59 % 0.0 in
16:19 29.5 °F 18.9 °F 1013.8 in South 2.6 mph 3.9 mph 53 % 0.0 in
16:24 29.5 °F 18.9 °F 1013.8 in South 2.6 mph 3.9 mph 53 % 0.0 in
16:29 29.5 °F 18.9 °F 1013.8 in South 2.6 mph 3.9 mph 53 % 0.0 in
16:34 29.5 °F 18.9 °F 1013.8 in South 2.6 mph 3.9 mph 53 % 0.0 in
16:35 25.9 °F 17.8 °F 1010.7 in SW 3.2 mph 4.8 mph 61 % 0.0 in
16:39 29.5 °F 18.9 °F 1013.8 in South 2.6 mph 3.9 mph 53 % 0.0 in
16:44 29.5 °F 18.9 °F 1013.8 in South 2.6 mph 3.9 mph 53 % 0.0 in
16:45 25.8 °F 17.9 °F 1010.7 in SW 3.2 mph 4.8 mph 62 % 0.0 in
16:49 29.5 °F 18.9 °F 1013.8 in South 2.6 mph 3.9 mph 53 % 0.0 in
16:54 29.5 °F 18.9 °F 1013.8 in South 2.6 mph 3.9 mph 53 % 0.0 in
16:55 25.6 °F 18.3 °F 1010.0 in SW 1.6 mph 6.4 mph 64 % 0.0 in
16:59 29.5 °F 18.9 °F 1013.8 in South 2.6 mph 3.9 mph 53 % 0.0 in
17:04 29.5 °F 18.9 °F 1013.8 in South 2.6 mph 3.9 mph 53 % 0.0 in
17:05 25.5 °F 18.2 °F 1010.0 in SW 3.2 mph 4.8 mph 64 % 0.0 in
17:09 29.5 °F 18.9 °F 1013.8 in South 2.6 mph 3.9 mph 53 % 0.0 in
17:14 29.5 °F 18.9 °F 1013.8 in South 2.6 mph 3.9 mph 53 % 0.0 in
17:15 25.4 °F 18.3 °F 1010.0 in Calm   1.6 mph 65 % 0.0 in
17:19 29.5 °F 18.9 °F 1013.8 in South 2.6 mph 3.9 mph 53 % 0.0 in
17:24 29.5 °F 18.9 °F 1013.8 in South 2.6 mph 3.9 mph 53 % 0.0 in
17:25 25.3 °F 18.5 °F 1010.0 in Calm   1.6 mph 66 % 0.0 in
17:29 29.5 °F 18.9 °F 1013.8 in South 2.6 mph 3.9 mph 53 % 0.0 in
17:34 29.5 °F 18.9 °F 1013.8 in South 2.6 mph 3.9 mph 53 % 0.0 in
17:35 25.3 °F 18.5 °F 1010.0 in Calm   1.6 mph 66 % 0.0 in
17:39 29.5 °F 18.9 °F 1013.8 in South 2.6 mph 3.9 mph 53 % 0.0 in
17:44 29.5 °F 18.9 °F 1013.8 in South 2.6 mph 3.9 mph 53 % 0.0 in
17:45 25.3 °F 18.5 °F 1010.0 in SW 1.6 mph 3.2 mph 66 % 0.0 in
17:49 29.5 °F 18.9 °F 1013.8 in South 2.6 mph 3.9 mph 53 % 0.0 in
17:54 29.5 °F 18.9 °F 1013.8 in South 2.6 mph 3.9 mph 53 % 0.0 in
17:55 25.2 °F 18.6 °F 1010.0 in Calm   3.2 mph 67 % 0.0 in
17:59 29.5 °F 18.9 °F 1013.8 in South 2.6 mph 3.9 mph 53 % 0.0 in
18:04 29.5 °F 18.9 °F 1013.8 in South 2.6 mph 3.9 mph 53 % 0.0 in
18:05 25.1 °F 18.8 °F 1010.0 in Calm   3.2 mph 68 % 0.0 in
18:09 29.5 °F 18.9 °F 1013.8 in South 2.6 mph 3.9 mph 53 % 0.0 in
18:14 29.5 °F 18.9 °F 1013.8 in South 2.6 mph 3.9 mph 53 % 0.0 in
18:15 25.1 °F 18.8 °F 1010.0 in WSW 1.6 mph 3.2 mph 68 % 0.0 in
18:19 29.5 °F 18.9 °F 1013.8 in South 2.6 mph 3.9 mph 53 % 0.0 in
18:24 29.5 °F 18.9 °F 1013.8 in South 2.6 mph 3.9 mph 53 % 0.0 in
18:25 25.1 °F 19.2 °F 1010.0 in WSW 1.6 mph 1.6 mph 70 % 0.0 in
18:29 29.5 °F 18.9 °F 1013.8 in South 2.6 mph 3.9 mph 53 % 0.0 in
18:34 29.5 °F 18.9 °F 1013.8 in South 2.6 mph 3.9 mph 53 % 0.0 in
18:39 29.5 °F 18.9 °F 1013.8 in South 2.6 mph 3.9 mph 53 % 0.0 in
18:44 29.5 °F 18.9 °F 1013.8 in South 2.6 mph 3.9 mph 53 % 0.0 in
18:49 29.5 °F 18.9 °F 1013.8 in South 2.6 mph 3.9 mph 53 % 0.0 in
18:54 29.5 °F 18.9 °F 1013.8 in South 2.6 mph 3.9 mph 53 % 0.0 in
18:59 29.5 °F 18.9 °F 1013.8 in South 2.6 mph 3.9 mph 53 % 0.0 in
19:04 29.5 °F 18.9 °F 1013.8 in South 2.6 mph 3.9 mph 53 % 0.0 in
19:09 29.5 °F 18.9 °F 1013.8 in South 2.6 mph 3.9 mph 53 % 0.0 in
19:14 29.5 °F 18.9 °F 1013.8 in South 2.6 mph 3.9 mph 53 % 0.0 in
19:19 29.5 °F 18.9 °F 1013.8 in South 2.6 mph 3.9 mph 53 % 0.0 in
19:24 29.5 °F 18.9 °F 1013.8 in South 2.6 mph 3.9 mph 53 % 0.0 in
19:25 24.9 °F 19.3 °F 1010.0 in NNE 1.6 mph 3.2 mph 71 % 0.0 in
19:29 29.5 °F 18.9 °F 1013.8 in South 2.6 mph 3.9 mph 53 % 0.0 in
19:34 29.5 °F 18.9 °F 1013.8 in South 2.6 mph 3.9 mph 53 % 0.0 in
19:35 24.9 °F 19.3 °F 1010.0 in SSE 1.6 mph 3.2 mph 71 % 0.0 in
19:39 29.5 °F 18.9 °F 1013.8 in South 2.6 mph 3.9 mph 53 % 0.0 in
19:44 29.5 °F 18.9 °F 1013.8 in South 2.6 mph 3.9 mph 53 % 0.0 in
19:45 24.9 °F 19.5 °F 1010.0 in ENE 3.2 mph 3.2 mph 72 % 0.0 in
19:49 29.5 °F 18.9 °F 1013.8 in South 2.6 mph 3.9 mph 53 % 0.0 in
19:54 29.5 °F 18.9 °F 1013.8 in South 2.6 mph 3.9 mph 53 % 0.0 in
19:55 24.9 °F 19.5 °F 1009.0 in NE 4.8 mph 6.4 mph 72 % 0.0 in
19:59 29.5 °F 18.9 °F 1013.8 in South 2.6 mph 3.9 mph 53 % 0.0 in
20:04 29.5 °F 18.9 °F 1013.8 in South 2.6 mph 3.9 mph 53 % 0.0 in
20:05 24.9 °F 19.7 °F 1009.0 in NNE 4.8 mph 6.4 mph 73 % 0.0 in
20:09 29.5 °F 18.9 °F 1013.8 in South 2.6 mph 3.9 mph 53 % 0.0 in
20:14 29.5 °F 18.9 °F 1013.8 in South 2.6 mph 3.9 mph 53 % 0.0 in
20:15 24.9 °F 19.7 °F 1009.0 in NE 3.2 mph 4.8 mph 73 % 0.0 in
20:19 29.5 °F 18.9 °F 1013.8 in South 2.6 mph 3.9 mph 53 % 0.0 in
20:24 29.5 °F 18.9 °F 1013.8 in South 2.6 mph 3.9 mph 53 % 0.0 in
20:25 24.9 °F 19.9 °F 1008.0 in NE 3.2 mph 6.4 mph 74 % 0.0 in
20:29 29.5 °F 18.9 °F 1013.8 in South 2.6 mph 3.9 mph 53 % 0.0 in
20:34 29.5 °F 18.9 °F 1013.8 in South 2.6 mph 3.9 mph 53 % 0.0 in
20:35 24.9 °F 19.9 °F 1008.0 in ENE 3.2 mph 4.8 mph 74 % 0.0 in
20:39 29.5 °F 18.9 °F 1013.8 in South 2.6 mph 3.9 mph 53 % 0.0 in
20:44 29.5 °F 18.9 °F 1013.8 in South 2.6 mph 3.9 mph 53 % 0.0 in
20:45 24.9 °F 20.2 °F 1008.0 in ENE 3.2 mph 4.8 mph 75 % 0.0 in
20:49 29.5 °F 18.9 °F 1013.8 in South 2.6 mph 3.9 mph 53 % 0.0 in
20:50 29.5 °F 18.9 °F 1013.8 in South 2.6 mph 3.9 mph 53 % 0.0 in
20:55 29.5 °F 18.9 °F 1013.8 in South 2.6 mph 3.9 mph 53 % 0.0 in
21:00 29.5 °F 18.9 °F 1013.8 in South 2.6 mph 3.9 mph 53 % 0.0 in
21:05 29.5 °F 18.9 °F 1013.8 in South 2.6 mph 3.9 mph 53 % 0.0 in
21:10 29.5 °F 18.9 °F 1013.8 in South 2.6 mph 3.9 mph 53 % 0.0 in
21:15 29.5 °F 18.9 °F 1013.8 in South 2.6 mph 3.9 mph 53 % 0.0 in
21:20 29.5 °F 18.9 °F 1013.8 in South 2.6 mph 3.9 mph 53 % 0.0 in
21:25 29.5 °F 18.9 °F 1013.8 in South 2.6 mph 3.9 mph 53 % 0.0 in
21:30 29.5 °F 18.9 °F 1013.8 in South 2.6 mph 3.9 mph 53 % 0.0 in
21:35 29.5 °F 18.9 °F 1013.8 in South 2.6 mph 3.9 mph 53 % 0.0 in
21:40 29.5 °F 18.9 °F 1013.8 in South 2.6 mph 3.9 mph 53 % 0.0 in
21:45 29.5 °F 18.9 °F 1013.8 in South 2.6 mph 3.9 mph 53 % 0.0 in
21:50 29.5 °F 18.9 °F 1013.8 in South 2.6 mph 3.9 mph 53 % 0.0 in
21:55 29.5 °F 18.9 °F 1013.8 in South 2.6 mph 3.9 mph 53 % 0.0 in
22:00 29.5 °F 18.9 °F 1013.8 in South 2.6 mph 3.9 mph 53 % 0.0 in
22:05 29.5 °F 18.9 °F 1013.8 in South 2.6 mph 3.9 mph 53 % 0.0 in
22:10 29.5 °F 18.9 °F 1013.8 in South 2.6 mph 3.9 mph 53 % 0.0 in
22:15 29.5 °F 18.9 °F 1013.8 in South 2.6 mph 3.9 mph 53 % 0.0 in
22:20 29.5 °F 18.9 °F 1013.8 in South 2.6 mph 3.9 mph 53 % 0.0 in
22:25 29.5 °F 18.9 °F 1013.8 in South 2.6 mph 3.9 mph 53 % 0.0 in
22:30 29.5 °F 18.9 °F 1013.8 in South 2.6 mph 3.9 mph 53 % 0.0 in
22:35 29.5 °F 18.9 °F 1013.8 in South 2.6 mph 3.9 mph 53 % 0.0 in
22:40 29.5 °F 18.9 °F 1013.8 in South 2.6 mph 3.9 mph 53 % 0.0 in
22:45 29.5 °F 18.9 °F 1013.8 in South 2.6 mph 3.9 mph 53 % 0.0 in
22:50 29.5 °F 18.9 °F 1013.8 in South 2.6 mph 3.9 mph 53 % 0.0 in
22:55 29.5 °F 18.9 °F 1013.8 in South 2.6 mph 3.9 mph 53 % 0.0 in
23:00 29.5 °F 18.9 °F 1013.8 in South 2.6 mph 3.9 mph 53 % 0.0 in
23:05 29.5 °F 18.9 °F 1013.8 in South 2.6 mph 3.9 mph 53 % 0.0 in
23:10 29.5 °F 18.9 °F 1013.8 in South 2.6 mph 3.9 mph 53 % 0.0 in
23:15 29.5 °F 18.9 °F 1013.8 in South 2.6 mph 3.9 mph 53 % 0.0 in
23:20 29.5 °F 18.9 °F 1013.8 in South 2.6 mph 3.9 mph 53 % 0.0 in
23:25 29.5 °F 18.9 °F 1013.8 in South 2.6 mph 3.9 mph 53 % 0.0 in
23:33 25.1 °F 19.2 °F 1010.0 in ENE 1.9 mph 1.9 mph 70 % 0.0 in
23:35 24.9 °F 21.0 °F 1007.0 in NE 3.2 mph 4.8 mph 79 % 0.0 in
23:38 25.1 °F 19.2 °F 1010.0 in ENE 2.6 mph 2.6 mph 70 % 0.0 in
23:43 25.0 °F 19.2 °F 1010.0 in SSW 1.9 mph   70 % 0.0 in
23:45 24.9 °F 20.8 °F 1007.0 in NE 8.0 mph 11.3 mph 78 % 0.0 in
23:48 25.0 °F 19.2 °F 1010.0 in ENE 2.6 mph 2.6 mph 70 % 0.0 in
23:53 25.1 °F 19.2 °F 1010.0 in NNE 3.9 mph 3.9 mph 70 % 0.0 in
23:55 24.9 °F 21.0 °F 1007.0 in NNE 3.2 mph 8.0 mph 79 % 0.0 in
23:58 25.0 °F 19.2 °F 1010.0 in NE 5.6 mph 5.6 mph 70 % 0.0 in
Meteo Sesrovires
Elogis d' Weather Underground - 4 mb

Guio original per  Jim McMurry - jmcmurry@mwt.net Adaptat per a la plantilla per  Wim van der Kuil - Leuven-Template.eu

Trobareu la nostra informacio del temps tambe a:

Weather Underground

AWEKAS